createdAt,value
2019-02-27T00:01:04.237Z,10.30
2019-02-27T00:03:39.025Z,7.78
2019-02-27T00:06:15.858Z,9.68
2019-02-27T00:08:47.787Z,13.32
2019-02-27T00:11:21.375Z,12.13
2019-02-27T00:13:57.645Z,14.53
2019-02-27T00:16:29.566Z,17.13
2019-02-27T00:19:02.941Z,13.00
2019-02-27T00:21:36.518Z,11.90
2019-02-27T00:24:10.970Z,11.10
2019-02-27T00:26:44.399Z,8.08
2019-02-27T00:29:17.838Z,7.92
2019-02-27T00:31:51.321Z,8.93
2019-02-27T00:34:25.770Z,11.18
2019-02-27T00:36:59.229Z,8.40
2019-02-27T00:39:33.086Z,8.18
2019-02-27T00:42:07.565Z,9.63
2019-02-27T00:44:40.935Z,7.90
2019-02-27T00:47:16.998Z,10.08
2019-02-27T00:52:22.249Z,13.10
2019-02-27T00:57:56.593Z,13.70
2019-02-27T01:00:29.862Z,11.30
2019-02-27T01:03:03.242Z,14.03
2019-02-27T01:05:40.797Z,17.35
2019-02-27T01:08:11.563Z,13.47
2019-02-27T01:10:45.908Z,14.75
2019-02-27T01:13:19.389Z,15.70
2019-02-27T01:15:52.664Z,15.58
2019-02-27T01:18:30.359Z,15.13
2019-02-27T01:21:00.827Z,17.30
2019-02-27T01:23:35.379Z,15.68
2019-02-27T01:26:08.992Z,17.98
2019-02-27T01:28:45.413Z,19.30
2019-02-27T01:31:18.776Z,20.62
2019-02-27T01:33:52.715Z,18.52
2019-02-27T01:36:26.091Z,17.95
2019-02-27T01:38:59.564Z,22.60
2019-02-27T01:41:33.295Z,17.92
2019-02-27T01:44:08.038Z,18.85
2019-02-27T01:46:42.364Z,20.50
2019-02-27T01:49:17.949Z,18.70
2019-02-27T01:51:51.340Z,19.20
2019-02-27T01:54:24.790Z,18.70
2019-02-27T01:56:59.921Z,20.32
2019-02-27T01:59:33.340Z,19.17
2019-02-27T02:02:07.103Z,20.15
2019-02-27T02:04:43.594Z,19.17
2019-02-27T02:07:17.608Z,19.00
2019-02-27T02:09:52.097Z,17.75
2019-02-27T02:12:26.048Z,17.57
2019-02-27T02:15:22.450Z,15.10
2019-02-27T02:18:17.431Z,16.25
2019-02-27T02:21:02.627Z,17.25
2019-02-27T02:24:09.355Z,20.47
2019-02-27T02:27:17.364Z,19.32
2019-02-27T02:30:29.335Z,20.37
2019-02-27T02:33:09.082Z,19.62
2019-02-27T02:35:53.460Z,18.00
2019-02-27T02:38:56.430Z,19.35
2019-02-27T02:42:04.049Z,22.52
2019-02-27T02:44:45.098Z,16.45
2019-02-27T02:47:21.463Z,20.88
2019-02-27T02:53:25.345Z,18.12
2019-02-27T02:56:15.997Z,15.75
2019-02-27T02:59:01.794Z,15.88
2019-02-27T03:01:45.690Z,13.88
2019-02-27T03:04:33.652Z,17.37
2019-02-27T03:07:36.645Z,14.00
2019-02-27T03:10:33.532Z,14.18
2019-02-27T03:13:15.394Z,16.07
2019-02-27T03:15:57.281Z,16.00
2019-02-27T03:18:47.757Z,15.88
2019-02-27T03:21:46.067Z,15.80
2019-02-27T03:24:31.073Z,14.07
2019-02-27T03:27:29.556Z,14.18
2019-02-27T03:30:07.485Z,13.30
2019-02-27T03:32:54.968Z,15.43
2019-02-27T03:35:36.423Z,15.30
2019-02-27T03:38:16.151Z,14.58
2019-02-27T03:41:11.392Z,16.65
2019-02-27T03:43:52.490Z,17.02
2019-02-27T03:46:49.521Z,23.07
2019-02-27T03:49:41.405Z,24.12
2019-02-27T03:52:27.291Z,15.13
2019-02-27T03:55:23.827Z,19.92
2019-02-27T03:58:30.026Z,20.43
2019-02-27T04:01:12.751Z,20.10
2019-02-27T04:04:13.691Z,21.85
2019-02-27T04:07:10.417Z,21.62
2019-02-27T04:09:43.954Z,24.92
2019-02-27T04:12:17.490Z,22.35
2019-02-27T04:14:50.976Z,21.30
2019-02-27T04:17:31.833Z,21.42
2019-02-27T04:20:05.578Z,17.25
2019-02-27T04:22:42.919Z,20.72
2019-02-27T04:25:16.485Z,22.75
2019-02-27T04:27:55.314Z,22.58
2019-02-27T04:30:24.554Z,20.05
2019-02-27T04:32:59.435Z,22.15
2019-02-27T04:35:34.366Z,20.62
2019-02-27T04:38:07.703Z,22.93
2019-02-27T04:40:41.699Z,26.77
2019-02-27T04:43:15.983Z,17.00
2019-02-27T04:45:49.957Z,19.48
2019-02-27T04:48:29.914Z,20.35
2019-02-27T04:51:04.152Z,16.93
2019-02-27T04:53:37.606Z,19.48
2019-02-27T04:56:12.086Z,15.63
2019-02-27T04:58:46.761Z,19.48
2019-02-27T05:01:20.368Z,19.00
2019-02-27T05:07:13.476Z,13.53
2019-02-27T05:09:46.982Z,11.05
2019-02-27T05:12:21.637Z,12.47
2019-02-27T05:14:56.322Z,14.83
2019-02-27T05:17:32.530Z,13.00
2019-02-27T05:22:39.331Z,12.28
2019-02-27T05:25:14.443Z,13.15
2019-02-27T05:27:48.689Z,13.15
2019-02-27T05:30:22.920Z,15.93
2019-02-27T05:33:01.811Z,14.38
2019-02-27T05:35:31.473Z,13.48
2019-02-27T05:38:09.657Z,13.55
2019-02-27T05:40:44.447Z,16.95
2019-02-27T05:43:17.968Z,16.47
2019-02-27T05:45:57.113Z,12.58
2019-02-27T05:48:30.522Z,15.35
2019-02-27T05:51:04.972Z,14.28
2019-02-27T05:53:39.803Z,14.07
2019-02-27T05:56:16.291Z,16.42
2019-02-27T05:58:51.272Z,14.25
2019-02-27T06:01:26.725Z,18.80
2019-02-27T06:04:01.533Z,17.57
2019-02-27T06:06:35.950Z,19.27
2019-02-27T06:09:10.412Z,16.02
2019-02-27T06:11:44.481Z,12.15
2019-02-27T06:14:21.115Z,18.40
2019-02-27T06:16:52.760Z,18.15
2019-02-27T06:19:27.333Z,13.40
2019-02-27T06:22:02.186Z,16.85
2019-02-27T06:24:35.803Z,13.60
2019-02-27T06:27:09.091Z,16.40
2019-02-27T06:29:42.650Z,20.52
2019-02-27T06:32:17.275Z,15.27
2019-02-27T06:34:50.608Z,19.25
2019-02-27T06:37:30.754Z,17.13
2019-02-27T06:40:07.396Z,16.07
2019-02-27T06:42:41.087Z,22.32
2019-02-27T06:45:18.320Z,21.15
2019-02-27T06:47:52.238Z,16.77
2019-02-27T06:50:26.730Z,17.35
2019-02-27T06:53:01.291Z,17.00
2019-02-27T06:58:30.773Z,23.05
2019-02-27T07:01:07.163Z,21.52
2019-02-27T07:03:40.416Z,21.12
2019-02-27T07:06:14.943Z,18.23
2019-02-27T07:08:48.352Z,20.60
2019-02-27T07:11:21.787Z,23.12
2019-02-27T07:13:58.293Z,19.17
2019-02-27T07:16:31.614Z,17.52
2019-02-27T07:19:24.008Z,17.32
2019-02-27T07:21:58.492Z,19.82
2019-02-27T07:24:33.590Z,19.60
2019-02-27T07:27:08.279Z,20.12
2019-02-27T07:29:42.808Z,17.75
2019-02-27T07:32:19.107Z,18.37
2019-02-27T07:34:52.526Z,22.95
2019-02-27T07:37:27.005Z,23.45
2019-02-27T07:40:00.416Z,19.35
2019-02-27T07:42:33.869Z,19.92
2019-02-27T07:45:11.323Z,19.73
2019-02-27T07:47:44.991Z,18.75
2019-02-27T07:50:20.629Z,17.07
2019-02-27T07:52:54.031Z,18.07
2019-02-27T07:55:28.642Z,18.23
2019-02-27T07:58:02.213Z,16.20
2019-02-27T08:00:54.609Z,16.55
2019-02-27T08:03:30.098Z,15.72
2019-02-27T08:06:03.833Z,17.90
2019-02-27T08:08:37.346Z,20.37
2019-02-27T08:11:30.954Z,17.17
2019-02-27T08:14:04.469Z,14.75
2019-02-27T08:16:38.390Z,21.10
2019-02-27T08:19:12.231Z,16.73
2019-02-27T08:21:45.802Z,20.30
2019-02-27T08:24:22.345Z,17.57
2019-02-27T08:29:27.677Z,16.12
2019-02-27T08:32:01.745Z,17.65
2019-02-27T08:34:35.145Z,18.65
2019-02-27T08:37:10.081Z,18.52
2019-02-27T08:39:43.440Z,21.48
2019-02-27T08:42:16.931Z,14.63
2019-02-27T08:44:51.329Z,18.00
2019-02-27T08:47:25.138Z,20.88
2019-02-27T08:49:58.647Z,19.82
2019-02-27T08:52:33.011Z,18.62
2019-02-27T08:55:07.378Z,21.77
2019-02-27T08:57:42.847Z,16.23
2019-02-27T09:00:23.925Z,19.10
2019-02-27T09:03:02.539Z,13.90
2019-02-27T09:05:33.607Z,13.80
2019-02-27T09:08:10.097Z,16.17
2019-02-27T09:10:42.987Z,18.75
2019-02-27T09:13:16.466Z,17.15
2019-02-27T09:15:49.923Z,17.73
2019-02-27T09:18:24.742Z,15.45
2019-02-27T09:20:59.107Z,15.53
2019-02-27T09:23:32.448Z,17.98
2019-02-27T09:26:05.939Z,15.55
2019-02-27T09:28:39.373Z,16.10
2019-02-27T09:31:13.078Z,14.83
2019-02-27T09:33:47.712Z,20.20
2019-02-27T09:36:22.078Z,19.60
2019-02-27T09:38:57.617Z,15.80
2019-02-27T09:41:30.998Z,16.42
2019-02-27T09:44:05.365Z,17.23
2019-02-27T09:46:38.939Z,16.20
2019-02-27T09:49:13.647Z,16.10
2019-02-27T09:51:48.189Z,18.37
2019-02-27T09:54:22.152Z,16.63
2019-02-27T09:56:56.493Z,16.75
2019-02-27T09:59:31.215Z,18.60
2019-02-27T10:02:06.217Z,19.10
2019-02-27T10:04:39.654Z,16.43
2019-02-27T10:07:16.806Z,19.92
2019-02-27T10:09:47.524Z,19.40
2019-02-27T10:12:21.515Z,19.30
2019-02-27T10:14:55.372Z,20.08
2019-02-27T10:17:28.719Z,25.62
2019-02-27T10:20:02.890Z,17.95
2019-02-27T10:22:37.141Z,16.23
2019-02-27T10:25:10.664Z,22.27
2019-02-27T10:28:04.452Z,20.12
2019-02-27T10:30:36.875Z,28.75
2019-02-27T10:33:11.179Z,20.08
2019-02-27T10:35:45.305Z,18.30
2019-02-27T10:38:18.654Z,19.90
2019-02-27T10:40:51.923Z,17.20
2019-02-27T10:43:25.495Z,18.37
2019-02-27T10:45:59.008Z,17.25
2019-02-27T10:48:32.350Z,16.90
2019-02-27T10:54:04.523Z,17.60
2019-02-27T10:56:38.529Z,16.27
2019-02-27T10:59:12.064Z,17.52
2019-02-27T11:01:45.442Z,15.53
2019-02-27T11:04:19.836Z,20.45
2019-02-27T11:06:53.320Z,21.87
2019-02-27T11:09:29.356Z,16.02
2019-02-27T11:12:03.774Z,18.32
2019-02-27T11:14:41.211Z,17.37
2019-02-27T11:20:12.254Z,21.65
2019-02-27T11:22:45.661Z,15.95
2019-02-27T11:25:24.340Z,18.27
2019-02-27T11:27:57.849Z,27.62
2019-02-27T11:30:38.367Z,20.30
2019-02-27T11:33:25.146Z,23.98
2019-02-27T11:35:51.817Z,16.97
2019-02-27T11:38:30.678Z,20.30
2019-02-27T11:41:06.513Z,18.48
2019-02-27T11:43:40.821Z,17.37
2019-02-27T11:46:14.627Z,16.55
2019-02-27T11:48:48.059Z,17.35
2019-02-27T11:51:21.538Z,17.77
2019-02-27T11:53:55.574Z,18.40
2019-02-27T11:56:30.059Z,18.52
2019-02-27T11:59:04.151Z,16.10
2019-02-27T12:01:38.824Z,16.30
2019-02-27T12:04:19.307Z,15.70
2019-02-27T12:06:52.202Z,19.20
2019-02-27T12:09:25.776Z,17.25
2019-02-27T12:12:03.662Z,19.62
2019-02-27T12:14:42.402Z,17.00
2019-02-27T12:17:15.939Z,16.95
2019-02-27T12:19:51.597Z,18.55
2019-02-27T12:22:35.960Z,21.55
2019-02-27T12:25:12.590Z,17.10
2019-02-27T12:27:49.831Z,16.87
2019-02-27T12:30:22.119Z,20.50
2019-02-27T12:33:00.068Z,20.25
2019-02-27T12:35:37.652Z,16.65
2019-02-27T12:38:11.445Z,19.27
2019-02-27T12:40:46.936Z,16.00
2019-02-27T12:43:20.811Z,13.05
2019-02-27T12:46:09.791Z,13.53
2019-02-27T12:48:49.619Z,16.27
2019-02-27T12:54:23.156Z,17.27
2019-02-27T12:56:58.069Z,14.68
2019-02-27T12:59:36.497Z,14.28
2019-02-27T13:02:11.011Z,15.23
2019-02-27T13:04:46.258Z,13.58
2019-02-27T13:07:23.041Z,13.55
2019-02-27T13:10:02.190Z,16.02
2019-02-27T13:12:38.340Z,14.65
2019-02-27T13:15:19.294Z,14.78
2019-02-27T13:17:56.069Z,17.85
2019-02-27T13:20:34.249Z,15.32
2019-02-27T13:23:11.613Z,14.03
2019-02-27T13:26:00.543Z,16.10
2019-02-27T13:28:38.137Z,12.35
2019-02-27T13:31:13.700Z,14.87
2019-02-27T13:33:48.020Z,15.80
2019-02-27T13:36:21.985Z,14.13
2019-02-27T13:39:02.847Z,13.95
2019-02-27T13:41:38.280Z,14.28
2019-02-27T13:44:16.637Z,15.18
2019-02-27T13:46:54.546Z,15.70
2019-02-27T13:49:32.021Z,16.17
2019-02-27T13:52:12.241Z,16.67
2019-02-27T13:54:51.979Z,14.93
2019-02-27T13:57:34.044Z,17.85
2019-02-27T14:00:13.689Z,17.17
2019-02-27T14:02:49.123Z,19.50
2019-02-27T14:05:35.142Z,16.70
2019-02-27T14:08:07.729Z,17.92
2019-02-27T14:10:41.449Z,18.05
2019-02-27T14:13:19.508Z,17.00
2019-02-27T14:15:58.092Z,16.15
2019-02-27T14:18:37.694Z,14.98
2019-02-27T14:21:14.947Z,15.53
2019-02-27T14:23:48.636Z,19.73
2019-02-27T14:26:27.057Z,16.45
2019-02-27T14:29:04.107Z,22.98
2019-02-27T14:31:43.410Z,21.77
2019-02-27T14:34:27.143Z,19.52
2019-02-27T14:37:06.450Z,24.50
2019-02-27T14:39:43.114Z,19.65
2019-02-27T14:42:17.033Z,21.68
2019-02-27T14:44:53.355Z,23.35
2019-02-27T14:47:32.545Z,26.93
2019-02-27T14:50:08.930Z,23.25
2019-02-27T14:52:54.169Z,22.80
2019-02-27T14:55:34.963Z,22.15
2019-02-27T14:58:09.457Z,24.02
2019-02-27T15:00:59.764Z,25.50
2019-02-27T15:03:39.799Z,27.17
2019-02-27T15:06:19.370Z,24.95
2019-02-27T15:08:58.052Z,27.30
2019-02-27T15:11:26.747Z,25.12
2019-02-27T15:14:04.310Z,27.85
2019-02-27T15:16:38.856Z,26.60
2019-02-27T15:19:15.640Z,25.62
2019-02-27T15:21:53.041Z,26.45
2019-02-27T15:24:28.915Z,25.15
2019-02-27T15:27:03.269Z,27.42
2019-02-27T15:29:41.450Z,30.15
2019-02-27T15:32:15.109Z,25.80
2019-02-27T15:34:57.930Z,30.70
2019-02-27T15:37:37.356Z,31.17
2019-02-27T15:40:20.433Z,30.43
2019-02-27T15:42:54.600Z,29.87
2019-02-27T15:45:33.473Z,29.98
2019-02-27T15:48:11.039Z,29.45
2019-02-27T15:50:46.741Z,31.30
2019-02-27T15:53:27.257Z,29.40
2019-02-27T15:56:07.960Z,30.72
2019-02-27T15:58:44.078Z,30.43
2019-02-27T16:01:18.481Z,26.65
2019-02-27T16:03:52.736Z,26.60
2019-02-27T16:06:31.252Z,27.32
2019-02-27T16:09:07.923Z,26.30
2019-02-27T16:11:42.900Z,29.18
2019-02-27T16:14:21.858Z,28.12
2019-02-27T16:17:04.097Z,29.72
2019-02-27T16:19:37.312Z,30.37
2019-02-27T16:22:16.801Z,30.10
2019-02-27T16:24:52.000Z,29.87
2019-02-27T16:27:26.926Z,37.85
2019-02-27T16:30:00.365Z,29.37
2019-02-27T16:32:34.762Z,30.50
2019-02-27T16:35:13.652Z,33.53
2019-02-27T16:37:47.986Z,33.48
2019-02-27T16:40:24.724Z,30.32
2019-02-27T16:42:59.096Z,30.48
2019-02-27T16:45:39.663Z,32.80
2019-02-27T16:48:14.624Z,31.82
2019-02-27T16:50:50.002Z,33.30
2019-02-27T16:53:25.847Z,31.45
2019-02-27T16:55:59.958Z,31.35
2019-02-27T16:58:33.850Z,35.17
2019-02-27T17:01:08.849Z,34.23
2019-02-27T17:03:45.025Z,32.90
2019-02-27T17:06:19.463Z,36.63
2019-02-27T17:08:53.928Z,27.07
2019-02-27T17:11:32.525Z,30.88
2019-02-27T17:14:11.174Z,37.30
2019-02-27T17:16:44.918Z,33.45
2019-02-27T17:19:18.957Z,29.65
2019-02-27T17:21:53.319Z,32.28
2019-02-27T17:24:27.198Z,31.77
2019-02-27T17:27:00.579Z,32.55
2019-02-27T17:29:38.393Z,30.23
2019-02-27T17:32:12.912Z,37.35
2019-02-27T17:34:48.607Z,31.65
2019-02-27T17:37:23.776Z,32.93
2019-02-27T17:40:02.192Z,28.10
2019-02-27T17:42:35.872Z,31.62
2019-02-27T17:45:13.076Z,29.27
2019-02-27T17:47:46.398Z,28.42
2019-02-27T17:50:20.758Z,27.00
2019-02-27T17:52:54.107Z,25.92
2019-02-27T17:55:27.347Z,26.17
2019-02-27T17:58:00.512Z,29.95
2019-02-27T18:00:40.952Z,28.80
2019-02-27T18:03:15.231Z,29.30
2019-02-27T18:05:50.956Z,30.27
2019-02-27T18:08:25.952Z,32.45
2019-02-27T18:10:59.257Z,34.92
2019-02-27T18:13:35.374Z,32.65
2019-02-27T18:16:06.896Z,31.65
2019-02-27T18:18:43.368Z,29.77
2019-02-27T18:21:15.017Z,28.43
2019-02-27T18:23:48.346Z,24.07
2019-02-27T18:26:21.595Z,25.97
2019-02-27T18:28:54.845Z,25.12
2019-02-27T18:31:28.244Z,27.67
2019-02-27T18:34:01.657Z,26.75
2019-02-27T18:36:42.603Z,23.73
2019-02-27T18:39:10.574Z,25.52
2019-02-27T18:41:45.760Z,30.95
2019-02-27T18:44:19.928Z,24.72
2019-02-27T18:46:53.194Z,27.67
2019-02-27T18:49:26.535Z,30.75
2019-02-27T18:52:00.779Z,29.90
2019-02-27T18:54:34.139Z,27.30
2019-02-27T18:57:08.236Z,29.23
2019-02-27T18:59:41.457Z,29.12
2019-02-27T19:02:19.707Z,30.55
2019-02-27T19:04:50.172Z,27.17
2019-02-27T19:07:23.526Z,24.55
2019-02-27T19:09:56.725Z,33.20
2019-02-27T19:12:29.890Z,27.05
2019-02-27T19:15:03.203Z,28.77
2019-02-27T19:17:37.009Z,28.52
2019-02-27T19:20:12.407Z,27.80
2019-02-27T19:25:17.952Z,26.50
2019-02-27T19:27:53.861Z,26.50
2019-02-27T19:30:27.352Z,28.67
2019-02-27T19:33:02.047Z,26.57
2019-02-27T19:35:35.678Z,27.70
2019-02-27T19:38:12.604Z,26.20
2019-02-27T19:40:44.705Z,24.00
2019-02-27T19:43:21.129Z,26.82
2019-02-27T19:45:53.011Z,26.25
2019-02-27T19:48:28.944Z,25.75
2019-02-27T19:51:01.752Z,25.72
2019-02-27T19:53:39.356Z,24.52
2019-02-27T19:56:10.649Z,26.90
2019-02-27T19:58:45.321Z,25.57
2019-02-27T20:01:18.719Z,24.07
2019-02-27T20:03:52.057Z,26.73
2019-02-27T20:06:27.955Z,26.35
2019-02-27T20:09:00.076Z,28.07
2019-02-27T20:11:39.894Z,24.18
2019-02-27T20:14:10.272Z,26.33
2019-02-27T20:16:44.856Z,26.05
2019-02-27T20:19:22.415Z,24.72
2019-02-27T20:22:06.631Z,24.63
2019-02-27T20:24:42.920Z,27.00
2019-02-27T20:27:15.536Z,26.80
2019-02-27T20:29:50.122Z,30.72
2019-02-27T20:32:28.347Z,29.27
2019-02-27T20:37:33.054Z,25.37
2019-02-27T20:40:07.087Z,29.20
2019-02-27T20:42:40.694Z,27.67
2019-02-27T20:45:21.022Z,26.23
2019-02-27T20:47:59.970Z,25.88
2019-02-27T20:50:35.990Z,28.98
2019-02-27T20:53:10.008Z,26.50
2019-02-27T20:55:44.318Z,26.73
2019-02-27T20:58:17.618Z,27.95
2019-02-27T21:00:51.202Z,27.75
2019-02-27T21:03:27.242Z,27.62
2019-02-27T21:06:00.094Z,23.80
2019-02-27T21:08:36.200Z,29.02
2019-02-27T21:11:09.119Z,27.70
2019-02-27T21:13:44.201Z,27.37
2019-02-27T21:16:17.350Z,26.82
2019-02-27T21:18:52.304Z,28.32
2019-02-27T21:21:25.564Z,25.83
2019-02-27T21:23:58.667Z,25.52
2019-02-27T21:26:31.930Z,26.50
2019-02-27T21:29:08.789Z,26.93
2019-02-27T21:31:41.521Z,29.02
2019-02-27T21:34:20.123Z,27.32
2019-02-27T21:36:53.271Z,31.27
2019-02-27T21:39:28.338Z,27.87
2019-02-27T21:42:01.365Z,26.40
2019-02-27T21:44:37.585Z,29.18
2019-02-27T21:47:12.091Z,29.82
2019-02-27T21:49:46.017Z,29.10
2019-02-27T21:52:22.429Z,28.70
2019-02-27T21:54:54.151Z,26.40
2019-02-27T21:57:29.209Z,28.87
2019-02-27T22:00:02.583Z,25.80
2019-02-27T22:02:38.019Z,29.92
2019-02-27T22:05:18.427Z,25.27
2019-02-27T22:07:47.216Z,29.02
2019-02-27T22:10:21.587Z,27.87
2019-02-27T22:12:57.170Z,29.70
2019-02-27T22:15:30.909Z,27.95
2019-02-27T22:18:04.171Z,28.70
2019-02-27T22:20:37.398Z,27.10
2019-02-27T22:23:12.740Z,27.30
2019-02-27T22:25:45.573Z,24.82
2019-02-27T22:28:20.106Z,26.93
2019-02-27T22:30:53.451Z,25.37
2019-02-27T22:33:26.515Z,28.27
2019-02-27T22:35:59.604Z,29.70
2019-02-27T22:38:34.466Z,27.00
2019-02-27T22:41:09.508Z,31.90
2019-02-27T22:43:43.438Z,28.75
2019-02-27T22:49:31.904Z,32.95
2019-02-27T22:52:04.740Z,30.43
2019-02-27T22:54:49.336Z,29.12
2019-02-27T22:57:23.478Z,30.48
2019-02-27T22:59:56.907Z,32.70
2019-02-27T23:02:30.431Z,32.45
2019-02-27T23:05:04.960Z,34.05
2019-02-27T23:07:38.669Z,28.60
2019-02-27T23:10:12.580Z,28.30
2019-02-27T23:12:46.100Z,30.45
2019-02-27T23:15:20.001Z,32.30
2019-02-27T23:17:53.799Z,33.92
2019-02-27T23:20:27.241Z,32.17
2019-02-27T23:23:02.664Z,33.18
2019-02-27T23:25:35.260Z,33.30
2019-02-27T23:28:11.582Z,32.67
2019-02-27T23:30:47.018Z,34.03
2019-02-27T23:33:19.820Z,35.03
2019-02-27T23:35:53.429Z,36.00
2019-02-27T23:38:26.895Z,37.35
2019-02-27T23:41:00.292Z,38.73
2019-02-27T23:43:34.873Z,37.25
2019-02-27T23:46:08.402Z,32.40
2019-02-27T23:48:41.774Z,41.13
2019-02-27T23:51:16.788Z,41.23
2019-02-27T23:53:50.154Z,39.67
2019-02-27T23:56:24.162Z,42.78
2019-02-27T23:59:02.110Z,39.95
